Time;durP1;ratioP1;P1;durP2;ratioP2;P2;SDS_P1;SDS_P2;PMS_P1;PMS_P2;Temp;Humidity;BMP_temperature;BMP_pressure;BME280_temperature;BME280_humidity;BME280_pressure;Samples;Min_cycle;Max_cycle;Signal;HPM_P1;HPM_P2
2023/07/31 00:00:05;;;;;;;1.80;0.67;;;16.10;99.90;;;;;;5014882;28;20454;-88
2023/07/31 00:02:32;;;;;;;2.00;0.60;;;16.00;99.90;;;;;;5014000;28;20432;-88
2023/07/31 00:04:59;;;;;;;0.70;0.60;;;16.00;99.90;;;;;;5015197;28;20471;-88
2023/07/31 00:07:26;;;;;;;0.97;0.97;;;15.90;99.90;;;;;;5014992;28;20439;-88
2023/07/31 00:09:53;;;;;;;0.67;0.67;;;15.90;99.90;;;;;;5018980;28;20455;-88
2023/07/31 00:12:21;;;;;;;1.10;1.00;;;15.80;99.90;;;;;;5015030;28;20555;-88
2023/07/31 00:14:48;;;;;;;0.60;0.60;;;15.80;99.90;;;;;;5015431;28;20468;-89
2023/07/31 00:17:15;;;;;;;0.60;0.60;;;15.80;99.90;;;;;;5014996;28;20435;-87
2023/07/31 00:19:41;;;;;;;0.87;0.70;;;15.80;99.90;;;;;;5014797;28;20929;-89
2023/07/31 00:22:08;;;;;;;0.73;0.63;;;15.70;99.90;;;;;;5014953;28;20455;-88
2023/07/31 00:24:35;;;;;;;0.60;0.60;;;15.70;99.90;;;;;;5014628;28;20483;-88
2023/07/31 00:27:02;;;;;;;1.00;0.60;;;15.60;99.90;;;;;;5014821;28;20439;-88
2023/07/31 00:29:30;;;;;;;1.30;0.60;;;15.60;99.90;;;;;;5014684;28;20447;-88
2023/07/31 00:31:57;;;;;;;0.70;0.50;;;15.60;99.90;;;;;;5014685;28;20456;-88
2023/07/31 00:34:24;;;;;;;1.60;0.80;;;15.60;99.90;;;;;;5014220;28;20487;-88
2023/07/31 00:36:50;;;;;;;0.90;0.70;;;15.50;99.90;;;;;;5014630;28;20453;-88
2023/07/31 00:39:17;;;;;;;0.80;0.80;;;15.50;99.90;;;;;;5014693;28;20443;-88
2023/07/31 00:41:44;;;;;;;0.50;0.50;;;15.50;99.90;;;;;;5013858;28;20460;-82
2023/07/31 00:44:11;;;;;;;0.60;0.60;;;15.40;99.90;;;;;;5013357;28;20559;-82
2023/07/31 00:46:39;;;;;;;2.27;0.50;;;15.40;99.90;;;;;;5013649;28;20435;-81
2023/07/31 00:49:06;;;;;;;0.93;0.73;;;15.40;99.90;;;;;;5014538;28;20466;-89
2023/07/31 00:51:33;;;;;;;0.73;0.70;;;15.40;99.90;;;;;;5015911;28;20940;-89
2023/07/31 00:54:01;;;;;;;0.60;0.60;;;15.30;99.90;;;;;;5015289;28;20525;-89
2023/07/31 00:56:29;;;;;;;0.60;0.60;;;15.30;99.90;;;;;;5014964;28;20443;-89
2023/07/31 00:58:56;;;;;;;0.80;0.67;;;15.30;99.90;;;;;;5015174;28;20940;-88
2023/07/31 01:01:23;;;;;;;0.70;0.70;;;15.30;99.90;;;;;;5015465;28;20463;-89
2023/07/31 01:03:53;;;;;;;0.63;0.60;;;15.20;99.90;;;;;;5014798;28;21004;-90
2023/07/31 01:06:30;;;;;;;2.10;1.00;;;15.10;99.90;;;;;;5015056;28;20432;-89
2023/07/31 01:09:03;;;;;;;1.40;1.00;;;15.10;99.90;;;;;;5015027;28;20419;-89
2023/07/31 01:11:32;;;;;;;1.33;0.70;;;15.00;99.90;;;;;;5014731;28;20490;-89
2023/07/31 01:13:59;;;;;;;0.87;0.83;;;15.00;99.90;;;;;;5018437;28;20472;-89
2023/07/31 01:16:27;;;;;;;0.60;0.60;;;15.10;99.90;;;;;;5018885;28;20443;-89
2023/07/31 01:18:55;;;;;;;2.20;0.73;;;15.10;99.90;;;;;;5018345;28;20452;-90
2023/07/31 01:21:44;;;;;;;0.60;0.60;;;15.10;99.90;;;;;;5018773;28;20962;-89
2023/07/31 01:24:23;;;;;;;0.90;0.63;;;14.90;99.90;;;;;;5018664;28;20502;-89
2023/07/31 01:26:58;;;;;;;0.83;0.67;;;15.00;99.90;;;;;;5018463;28;20412;-90
2023/07/31 01:29:32;;;;;;;0.60;0.53;;;15.10;99.90;;;;;;5018377;28;20431;-89
2023/07/31 01:32:03;;;;;;;0.70;0.70;;;15.10;99.90;;;;;;5018714;28;20936;-89
2023/07/31 01:34:30;;;;;;;1.53;0.70;;;15.10;99.90;;;;;;5017986;28;20474;-89
2023/07/31 01:36:57;;;;;;;0.80;0.60;;;15.10;99.90;;;;;;5018192;28;20462;-89
2023/07/31 01:39:25;;;;;;;0.50;0.40;;;15.10;99.90;;;;;;5018499;28;20443;-89
2023/07/31 01:41:53;;;;;;;0.70;0.50;;;15.00;99.90;;;;;;5023692;28;20448;-89
2023/07/31 01:44:19;;;;;;;0.70;0.60;;;15.10;99.90;;;;;;5018158;28;20488;-89
2023/07/31 01:46:46;;;;;;;1.43;0.90;;;15.00;99.90;;;;;;5017953;28;20455;-89
2023/07/31 01:49:13;;;;;;;1.17;0.50;;;14.90;99.90;;;;;;5017751;28;20514;-88
2023/07/31 01:51:40;;;;;;;1.13;1.03;;;15.00;99.90;;;;;;5017937;28;20450;-89
2023/07/31 01:54:07;;;;;;;0.60;0.60;;;14.90;99.90;;;;;;5018026;28;20463;-88
2023/07/31 01:56:33;;;;;;;0.70;0.70;;;14.90;99.90;;;;;;5017960;28;20451;-89
2023/07/31 01:59:02;;;;;;;0.90;0.80;;;14.90;99.90;;;;;;5017684;28;20443;-89
2023/07/31 02:01:28;;;;;;;0.60;0.60;;;14.90;99.90;;;;;;5017858;28;20485;-89
2023/07/31 02:03:55;;;;;;;2.83;0.70;;;14.80;99.90;;;;;;5017488;28;20853;-88
2023/07/31 02:06:22;;;;;;;0.50;0.50;;;14.80;99.90;;;;;;5017950;28;20474;-89
2023/07/31 02:08:49;;;;;;;0.73;0.60;;;14.70;99.90;;;;;;5017792;28;20471;-89
2023/07/31 02:11:16;;;;;;;2.20;0.73;;;14.70;99.90;;;;;;5017843;28;20450;-90
2023/07/31 02:13:42;;;;;;;2.50;0.73;;;14.70;99.90;;;;;;5017672;28;20467;-90
2023/07/31 02:16:10;;;;;;;1.77;1.07;;;14.80;99.90;;;;;;5017579;28;20448;-90
2023/07/31 02:18:37;;;;;;;0.60;0.60;;;14.70;99.90;;;;;;5017664;28;20455;-89
2023/07/31 02:21:04;;;;;;;0.80;0.70;;;14.80;99.90;;;;;;5017473;28;20459;-89
2023/07/31 02:23:31;;;;;;;0.60;0.60;;;14.80;99.90;;;;;;5016934;28;20467;-89
2023/07/31 02:25:58;;;;;;;0.60;0.60;;;14.80;99.90;;;;;;5016919;28;20454;-89
2023/07/31 02:28:24;;;;;;;2.20;0.93;;;14.80;99.90;;;;;;5017467;28;20490;-89
2023/07/31 02:30:52;;;;;;;1.17;0.60;;;14.80;99.90;;;;;;5017216;28;20452;-88
2023/07/31 02:33:20;;;;;;;1.63;0.70;;;14.70;99.90;;;;;;5017328;28;20541;-89
2023/07/31 02:35:47;;;;;;;0.80;0.60;;;14.80;99.90;;;;;;5017129;28;20490;-89
2023/07/31 02:38:14;;;;;;;0.70;0.63;;;14.80;99.90;;;;;;5017354;28;20447;-89
2023/07/31 02:40:40;;;;;;;0.57;0.57;;;14.80;99.90;;;;;;5017138;28;20822;-89
2023/07/31 02:43:07;;;;;;;0.57;0.57;;;14.80;99.90;;;;;;5017024;28;20929;-89
2023/07/31 02:45:34;;;;;;;1.63;0.60;;;14.80;99.90;;;;;;5016985;28;20491;-90
2023/07/31 02:48:01;;;;;;;1.23;0.60;;;14.80;99.90;;;;;;5017445;28;20451;-89
2023/07/31 02:50:29;;;;;;;0.60;0.60;;;14.80;99.90;;;;;;5016933;28;20451;-89
2023/07/31 02:52:56;;;;;;;0.63;0.63;;;14.80;99.90;;;;;;5017297;28;20448;-89
2023/07/31 02:55:23;;;;;;;0.53;0.50;;;14.80;99.90;;;;;;5017041;28;20448;-90
2023/07/31 02:57:49;;;;;;;1.83;0.70;;;14.90;99.90;;;;;;5017143;28;20447;-89
2023/07/31 03:00:16;;;;;;;1.20;0.60;;;14.70;99.90;;;;;;5016715;28;20436;-89
2023/07/31 03:02:43;;;;;;;0.60;0.60;;;14.80;99.90;;;;;;5016947;28;20454;-88
2023/07/31 03:05:10;;;;;;;1.23;0.60;;;14.80;99.90;;;;;;5016780;28;20828;-87
2023/07/31 03:07:38;;;;;;;0.87;0.67;;;14.80;99.90;;;;;;5017113;28;20448;-89
2023/07/31 03:10:05;;;;;;;0.93;0.80;;;14.70;99.90;;;;;;5017151;28;20456;-89
2023/07/31 03:12:32;;;;;;;1.53;0.60;;;14.70;99.90;;;;;;5016963;28;20451;-88
2023/07/31 03:14:59;;;;;;;0.60;0.60;;;14.70;99.90;;;;;;5022104;28;20467;-88
2023/07/31 03:17:26;;;;;;;1.10;0.70;;;14.70;99.90;;;;;;5016796;28;20455;-89
2023/07/31 03:19:53;;;;;;;1.80;0.67;;;14.70;99.90;;;;;;5016480;28;20921;-89
2023/07/31 03:22:19;;;;;;;0.50;0.40;;;14.60;99.90;;;;;;5016918;28;20451;-89
2023/07/31 03:24:48;;;;;;;0.50;0.50;;;14.70;99.90;;;;;;5016476;28;20497;-89
2023/07/31 03:27:14;;;;;;;0.70;0.60;;;14.70;99.90;;;;;;5016373;28;20435;-89
2023/07/31 03:29:41;;;;;;;0.50;0.50;;;14.70;99.90;;;;;;5016221;28;20455;-89
2023/07/31 03:32:08;;;;;;;0.70;0.70;;;14.70;99.90;;;;;;5016802;28;20447;-90
2023/07/31 03:34:35;;;;;;;1.23;0.70;;;14.70;99.90;;;;;;5016012;28;20495;-89
2023/07/31 03:37:02;;;;;;;2.10;0.83;;;14.70;99.90;;;;;;5016152;28;20440;-89
2023/07/31 03:39:29;;;;;;;0.93;0.57;;;14.70;99.90;;;;;;5015844;28;20471;-89
2023/07/31 03:41:57;;;;;;;1.43;0.50;;;14.70;99.90;;;;;;5015737;28;20451;-89
2023/07/31 03:44:23;;;;;;;0.60;0.53;;;14.70;99.90;;;;;;5015731;28;20498;-90
2023/07/31 03:46:50;;;;;;;1.50;0.70;;;14.80;99.90;;;;;;5015578;28;20436;-90
2023/07/31 03:49:17;;;;;;;0.70;0.50;;;14.70;99.90;;;;;;5015742;28;20436;-89
2023/07/31 03:51:44;;;;;;;0.67;0.50;;;14.80;99.90;;;;;;5015504;28;20442;-90
2023/07/31 03:54:11;;;;;;;1.53;1.00;;;14.80;99.90;;;;;;5015607;28;20471;-89
2023/07/31 03:56:38;;;;;;;1.80;0.80;;;14.80;99.90;;;;;;5015755;28;20454;-89
2023/07/31 03:59:06;;;;;;;3.10;0.93;;;14.80;99.90;;;;;;5015051;28;20642;-90
2023/07/31 04:01:33;;;;;;;1.03;0.90;;;14.90;99.90;;;;;;5015883;28;20448;-89
2023/07/31 04:04:00;;;;;;;0.77;0.67;;;14.80;99.90;;;;;;5015098;28;20463;-89
2023/07/31 04:06:27;;;;;;;0.60;0.60;;;14.90;99.90;;;;;;5015403;28;20443;-89
2023/07/31 04:08:53;;;;;;;0.70;0.60;;;14.80;99.90;;;;;;5023917;28;20427;-88
2023/07/31 04:11:20;;;;;;;1.00;0.60;;;14.90;99.90;;;;;;5015360;28;20462;-89
2023/07/31 04:13:47;;;;;;;5.23;0.90;;;15.00;99.90;;;;;;5015196;28;20467;-89
2023/07/31 04:16:15;;;;;;;2.90;0.70;;;15.00;99.90;;;;;;5015308;28;20462;-88
2023/07/31 04:18:42;;;;;;;0.97;0.57;;;15.00;99.90;;;;;;5015188;28;20432;-89
2023/07/31 04:21:09;;;;;;;1.33;0.90;;;15.00;99.90;;;;;;5015089;28;20439;-88
2023/07/31 04:23:36;;;;;;;3.60;0.80;;;15.00;99.90;;;;;;5015278;28;20455;-89
2023/07/31 04:26:03;;;;;;;3.33;0.60;;;15.10;99.90;;;;;;5015545;28;20483;-89
2023/07/31 04:28:31;;;;;;;0.50;0.50;;;15.10;99.90;;;;;;5014922;28;20451;-89
2023/07/31 04:30:58;;;;;;;0.93;0.63;;;15.20;99.90;;;;;;5015006;28;20476;-88
2023/07/31 04:33:26;;;;;;;0.60;0.60;;;15.20;99.90;;;;;;5014650;28;20456;-89
2023/07/31 04:35:54;;;;;;;0.57;0.50;;;15.20;99.90;;;;;;5014814;28;20490;-90
2023/07/31 04:38:21;;;;;;;0.87;0.70;;;15.20;99.90;;;;;;5014834;28;20526;-88
2023/07/31 04:40:49;;;;;;;0.70;0.60;;;15.20;99.90;;;;;;5014589;28;20933;-89
2023/07/31 04:43:16;;;;;;;0.70;0.70;;;15.20;99.90;;;;;;5014873;28;20554;-89
2023/07/31 04:45:45;;;;;;;0.93;0.50;;;15.30;99.90;;;;;;5014468;28;21028;-89
2023/07/31 04:48:12;;;;;;;1.70;0.60;;;15.30;99.90;;;;;;5014238;28;20530;-89
2023/07/31 04:50:40;;;;;;;1.00;0.90;;;15.30;99.90;;;;;;5014795;28;20447;-89
2023/07/31 04:53:07;;;;;;;0.60;0.60;;;15.40;99.90;;;;;;5014792;28;20941;-90
2023/07/31 04:55:34;;;;;;;0.80;0.60;;;15.30;99.90;;;;;;5015209;28;20454;-90
2023/07/31 04:58:01;;;;;;;1.93;1.13;;;15.30;99.90;;;;;;5014479;28;20450;-90
2023/07/31 05:00:28;;;;;;;1.73;0.77;;;15.30;99.90;;;;;;5014723;28;20451;-90
2023/07/31 05:02:54;;;;;;;0.50;0.40;;;15.30;99.90;;;;;;5014463;28;20442;-90
2023/07/31 05:05:21;;;;;;;1.57;0.90;;;15.40;99.90;;;;;;5014623;28;20475;-90
2023/07/31 05:07:49;;;;;;;0.73;0.67;;;15.40;99.90;;;;;;5014775;28;20444;-89
2023/07/31 05:10:16;;;;;;;0.70;0.60;;;15.50;99.90;;;;;;5014824;28;20443;-89
2023/07/31 05:12:43;;;;;;;0.80;0.53;;;15.50;99.90;;;;;;5014672;28;20458;-89
2023/07/31 05:15:10;;;;;;;0.57;0.40;;;15.60;99.90;;;;;;5014676;28;20960;-89
2023/07/31 05:17:37;;;;;;;0.83;0.70;;;15.60;99.90;;;;;;5014767;28;20451;-89
2023/07/31 05:20:04;;;;;;;0.50;0.50;;;15.60;99.90;;;;;;5014546;28;20443;-90
2023/07/31 05:22:31;;;;;;;3.70;0.70;;;15.70;99.90;;;;;;5014775;28;20526;-89
2023/07/31 05:24:59;;;;;;;0.60;0.60;;;15.70;99.90;;;;;;5014281;28;20486;-90
2023/07/31 05:27:26;;;;;;;2.23;0.50;;;15.70;99.90;;;;;;5014364;28;20963;-89
2023/07/31 05:29:53;;;;;;;0.70;0.70;;;15.70;99.90;;;;;;5014667;28;20435;-89
2023/07/31 05:32:20;;;;;;;0.50;0.50;;;15.70;99.90;;;;;;5014536;28;20454;-89
2023/07/31 05:34:46;;;;;;;0.90;0.60;;;15.80;99.90;;;;;;5013968;28;20480;-89
2023/07/31 05:37:13;;;;;;;0.90;0.60;;;15.90;99.90;;;;;;5014383;28;20447;-89
2023/07/31 05:39:40;;;;;;;1.97;0.80;;;15.90;99.90;;;;;;5014364;28;20440;-90
2023/07/31 05:42:08;;;;;;;0.67;0.67;;;15.90;99.90;;;;;;5014105;28;20448;-89
2023/07/31 05:44:35;;;;;;;0.90;0.60;;;16.00;99.90;;;;;;5014037;28;20980;-90
2023/07/31 05:47:02;;;;;;;0.57;0.57;;;16.10;99.90;;;;;;5014282;28;20442;-87
2023/07/31 05:49:29;;;;;;;2.03;0.60;;;16.10;99.90;;;;;;5013960;28;20463;-89
2023/07/31 05:51:55;;;;;;;0.60;0.50;;;16.20;99.90;;;;;;5014376;28;20484;-90
2023/07/31 05:54:22;;;;;;;0.60;0.60;;;16.30;99.90;;;;;;5014212;28;20474;-90
2023/07/31 05:56:49;;;;;;;0.67;0.67;;;16.40;99.90;;;;;;5014051;28;20538;-89
2023/07/31 05:59:17;;;;;;;0.60;0.50;;;16.50;99.90;;;;;;5014821;28;20434;-90
2023/07/31 06:01:44;;;;;;;2.10;0.80;;;16.50;99.90;;;;;;5017827;28;20450;-88
2023/07/31 06:04:11;;;;;;;0.60;0.60;;;16.50;99.90;;;;;;5017547;28;20817;-88
2023/07/31 06:06:37;;;;;;;0.80;0.80;;;16.50;99.90;;;;;;5016738;28;21030;-87
2023/07/31 06:09:04;;;;;;;1.27;0.60;;;16.60;99.90;;;;;;5016845;28;20444;-88
2023/07/31 06:11:31;;;;;;;3.10;0.80;;;16.50;99.90;;;;;;5016882;28;20939;-89
2023/07/31 06:13:58;;;;;;;1.63;0.90;;;16.60;99.90;;;;;;5017033;28;20469;-87
2023/07/31 06:16:27;;;;;;;1.40;0.70;;;16.60;99.90;;;;;;5016787;28;20448;-88
2023/07/31 06:18:53;;;;;;;1.33;0.70;;;16.60;99.90;;;;;;5016716;28;20847;-90
2023/07/31 06:21:20;;;;;;;0.87;0.87;;;16.60;99.90;;;;;;5016446;28;20806;-87
2023/07/31 06:23:47;;;;;;;0.80;0.67;;;16.70;99.90;;;;;;5016575;28;20462;-87
2023/07/31 06:26:14;;;;;;;2.60;0.70;;;16.80;99.90;;;;;;5016460;28;20487;-86
2023/07/31 06:28:41;;;;;;;0.80;0.60;;;16.90;99.90;;;;;;5016653;28;20447;-87
2023/07/31 06:31:07;;;;;;;0.83;0.70;;;17.00;99.90;;;;;;5016358;28;20442;-87
2023/07/31 06:33:36;;;;;;;1.00;0.60;;;17.00;99.90;;;;;;5017304;28;20840;-86
2023/07/31 06:36:03;;;;;;;0.90;0.80;;;17.30;99.90;;;;;;5016205;28;20485;-87
2023/07/31 06:38:29;;;;;;;0.60;0.60;;;17.30;99.90;;;;;;5016453;28;20444;-87
2023/07/31 06:40:56;;;;;;;0.70;0.60;;;17.40;99.90;;;;;;5016936;28;20459;-88
2023/07/31 06:43:26;;;;;;;1.10;0.70;;;17.40;99.90;;;;;;5016000;28;20631;-88
2023/07/31 06:45:53;;;;;;;0.90;0.70;;;17.50;99.90;;;;;;5015805;28;20795;-88
2023/07/31 06:48:19;;;;;;;2.03;1.30;;;17.50;99.90;;;;;;5016241;28;20823;-88
2023/07/31 06:50:47;;;;;;;0.70;0.70;;;17.70;99.90;;;;;;5016215;28;20809;-87
2023/07/31 06:53:14;;;;;;;0.90;0.80;;;17.90;99.90;;;;;;5016216;28;20476;-87
2023/07/31 06:55:41;;;;;;;0.73;0.67;;;18.00;99.90;;;;;;5015847;28;20443;-89
2023/07/31 06:58:08;;;;;;;0.70;0.63;;;18.10;99.90;;;;;;5015933;28;21012;-88
2023/07/31 07:00:34;;;;;;;1.37;0.90;;;18.00;99.90;;;;;;5015834;28;20440;-87
2023/07/31 07:03:01;;;;;;;0.70;0.60;;;18.00;99.90;;;;;;5015935;28;20436;-88
2023/07/31 07:05:28;;;;;;;1.57;1.00;;;18.10;99.90;;;;;;5015925;28;20491;-90
2023/07/31 07:07:56;;;;;;;0.73;0.67;;;18.20;99.90;;;;;;5015722;28;20436;-89
2023/07/31 07:10:23;;;;;;;2.40;0.70;;;18.20;99.90;;;;;;5015652;28;20447;-88
2023/07/31 07:12:50;;;;;;;1.80;0.80;;;18.50;99.90;;;;;;5016004;28;20447;-89
2023/07/31 07:15:17;;;;;;;0.50;0.50;;;18.70;99.90;;;;;;5015819;28;20443;-85
2023/07/31 07:17:43;;;;;;;0.97;0.70;;;18.80;99.90;;;;;;5015235;28;20944;-85
2023/07/31 07:20:11;;;;;;;2.20;0.50;;;19.00;99.90;;;;;;5015333;28;20448;-86
2023/07/31 07:22:37;;;;;;;2.30;0.63;;;19.10;99.90;;;;;;5015236;28;20444;-84
2023/07/31 07:25:07;;;;;;;0.80;0.80;;;19.20;99.90;;;;;;5014945;28;20482;-85
2023/07/31 07:27:34;;;;;;;2.93;0.80;;;19.10;99.90;;;;;;5015167;28;20509;-86
2023/07/31 07:30:00;;;;;;;0.70;0.60;;;19.10;99.90;;;;;;5015125;28;20443;-85
2023/07/31 07:32:27;;;;;;;0.60;0.60;;;19.00;99.90;;;;;;5015074;28;20451;-85
2023/07/31 07:34:55;;;;;;;1.13;0.60;;;18.90;99.90;;;;;;5014624;28;20483;-85
2023/07/31 07:37:22;;;;;;;1.27;0.70;;;19.00;99.90;;;;;;5014993;28;20479;-85
2023/07/31 07:39:49;;;;;;;1.70;0.70;;;18.90;99.90;;;;;;5015029;28;20454;-85
2023/07/31 07:42:18;;;;;;;1.57;0.70;;;18.70;99.90;;;;;;5014581;28;20825;-85
2023/07/31 07:44:45;;;;;;;0.60;0.60;;;18.60;99.90;;;;;;5014592;28;20455;-84
2023/07/31 07:47:12;;;;;;;0.80;0.60;;;18.70;99.90;;;;;;5014497;28;20486;-85
2023/07/31 07:49:39;;;;;;;1.53;1.00;;;18.70;99.90;;;;;;5014418;28;20443;-85
2023/07/31 07:52:06;;;;;;;1.27;0.87;;;18.80;99.90;;;;;;5014778;28;20444;-84
2023/07/31 07:54:33;;;;;;;0.80;0.67;;;18.90;99.90;;;;;;5014883;28;20455;-84
2023/07/31 07:57:00;;;;;;;1.67;0.70;;;19.00;99.90;;;;;;5014423;28;20860;-84
2023/07/31 07:59:28;;;;;;;6.73;0.70;;;19.20;99.90;;;;;;5014653;28;20473;-87
2023/07/31 08:01:54;;;;;;;0.60;0.60;;;19.40;99.90;;;;;;5015262;28;20456;-86
2023/07/31 08:04:21;;;;;;;1.43;0.50;;;19.50;99.90;;;;;;5014400;28;20472;-85
2023/07/31 08:06:48;;;;;;;3.33;0.90;;;19.80;99.90;;;;;;5014201;28;20483;-85
2023/07/31 08:09:15;;;;;;;5.23;1.13;;;20.00;99.90;;;;;;5014457;28;20815;-85
2023/07/31 08:11:41;;;;;;;1.87;0.80;;;20.20;99.90;;;;;;5014206;28;20506;-85
2023/07/31 08:14:08;;;;;;;0.90;0.70;;;20.30;99.90;;;;;;5014316;28;20851;-85
2023/07/31 08:16:36;;;;;;;0.53;0.53;;;20.40;99.90;;;;;;5014409;28;20963;-85
2023/07/31 08:19:03;;;;;;;0.50;0.50;;;20.50;99.90;;;;;;5014339;28;20454;-87
2023/07/31 08:21:30;;;;;;;2.37;0.93;;;20.50;99.90;;;;;;5013926;28;20447;-85
2023/07/31 08:23:56;;;;;;;3.80;1.10;;;20.70;99.90;;;;;;5013850;28;20816;-85
2023/07/31 08:26:23;;;;;;;4.53;0.90;;;20.70;99.90;;;;;;5014136;28;20498;-85
2023/07/31 08:28:50;;;;;;;15.43;2.30;;;20.80;99.90;;;;;;5013919;28;20521;-86
2023/07/31 08:31:18;;;;;;;2.23;1.00;;;21.00;99.90;;;;;;5013885;28;20439;-84
2023/07/31 08:33:46;;;;;;;0.63;0.57;;;21.00;99.90;;;;;;5013902;28;20475;-85
2023/07/31 08:36:13;;;;;;;1.10;1.00;;;21.10;99.90;;;;;;5013900;28;20482;-88
2023/07/31 08:38:39;;;;;;;2.33;0.93;;;21.30;99.90;;;;;;5014085;28;20475;-83
2023/07/31 08:41:06;;;;;;;22.37;3.77;;;21.40;99.90;;;;;;5013902;28;20447;-83
2023/07/31 08:43:34;;;;;;;3.27;0.77;;;21.50;99.90;;;;;;5013610;28;20459;-82
2023/07/31 08:46:01;;;;;;;4.57;1.07;;;21.20;99.90;;;;;;5013874;28;20848;-84
2023/07/31 08:48:30;;;;;;;4.50;0.80;;;21.00;99.90;;;;;;5013548;28;20948;-83
2023/07/31 08:50:58;;;;;;;9.13;1.30;;;20.80;99.90;;;;;;5013509;28;20454;-82
2023/07/31 08:53:25;;;;;;;4.63;1.00;;;20.60;99.90;;;;;;5013465;28;20467;-83
2023/07/31 08:55:54;;;;;;;3.17;0.80;;;20.40;99.90;;;;;;5013751;28;20443;-85
2023/07/31 08:58:21;;;;;;;1.70;0.70;;;20.40;99.90;;;;;;5013716;28;20477;-85
2023/07/31 09:00:48;;;;;;;10.90;1.50;;;20.20;99.90;;;;;;5013692;28;20447;-85
2023/07/31 09:03:17;;;;;;;0.93;0.77;;;20.40;99.90;;;;;;5013597;28;20467;-85
2023/07/31 09:05:45;;;;;;;4.43;0.87;;;20.30;99.90;;;;;;5013321;28;20471;-85
2023/07/31 09:08:14;;;;;;;13.53;2.00;;;20.30;99.90;;;;;;5013708;28;20932;-87
2023/07/31 09:10:43;;;;;;;28.60;3.10;;;20.60;99.90;;;;;;5013635;28;20963;-84
2023/07/31 09:13:10;;;;;;;4.87;1.17;;;20.70;99.90;;;;;;5013294;28;20842;-85
2023/07/31 09:15:37;;;;;;;3.40;0.90;;;21.00;99.90;;;;;;5013628;28;20501;-85
2023/07/31 09:18:05;;;;;;;1.27;0.77;;;21.10;99.90;;;;;;5013590;28;20443;-85
2023/07/31 09:20:33;;;;;;;1.67;0.80;;;21.40;99.90;;;;;;5013750;28;20447;-86
2023/07/31 09:23:08;;;;;;;0.90;0.80;;;21.60;99.90;;;;;;5013382;28;20451;-85
2023/07/31 09:25:36;;;;;;;0.70;0.70;;;21.50;99.90;;;;;;5013447;28;20435;-85
2023/07/31 09:28:04;;;;;;;0.77;0.40;;;21.40;99.90;;;;;;5013700;28;20449;-85
2023/07/31 09:30:32;;;;;;;1.77;0.67;;;21.40;99.90;;;;;;5013436;28;20446;-85
2023/07/31 09:33:05;;;;;;;0.90;0.80;;;21.30;99.90;;;;;;5013534;28;20821;-85
2023/07/31 09:35:34;;;;;;;2.63;0.70;;;21.10;99.90;;;;;;5017156;28;20564;-85
2023/07/31 09:38:04;;;;;;;2.33;1.30;;;21.10;99.90;;;;;;5017455;28;20530;-84
2023/07/31 09:40:32;;;;;;;3.43;0.90;;;21.10;99.90;;;;;;5017044;28;20442;-91
2023/07/31 09:43:01;;;;;;;3.07;1.07;;;21.10;99.90;;;;;;5016864;28;20436;-86
2023/07/31 09:45:29;;;;;;;1.00;0.90;;;21.00;99.90;;;;;;5017457;28;20565;-86
2023/07/31 09:47:56;;;;;;;1.23;0.77;;;21.00;99.90;;;;;;5017067;28;20485;-85
2023/07/31 09:50:25;;;;;;;2.33;0.97;;;21.20;99.90;;;;;;5017137;28;20452;-85
2023/07/31 09:52:51;;;;;;;1.53;0.73;;;21.40;99.90;;;;;;5017391;28;20804;-83
2023/07/31 09:55:19;;;;;;;1.50;0.50;;;21.40;99.90;;;;;;5017153;28;20453;-84
2023/07/31 09:57:48;;;;;;;2.10;0.77;;;21.30;99.90;;;;;;5016921;28;20439;-84
2023/07/31 10:00:18;;;;;;;2.80;0.83;;;21.50;99.90;;;;;;5016861;28;20474;-85
2023/07/31 10:02:47;;;;;;;1.40;0.80;;;21.40;99.90;;;;;;5016839;28;20783;-85
2023/07/31 10:05:15;;;;;;;0.70;0.70;;;21.50;99.90;;;;;;5016612;28;20525;-85
2023/07/31 10:07:44;;;;;;;1.33;0.70;;;21.60;99.90;;;;;;5016343;28;20791;-85
2023/07/31 10:10:12;;;;;;;1.80;1.00;;;21.80;99.90;;;;;;5016593;28;20448;-84
2023/07/31 10:12:39;;;;;;;1.27;0.70;;;21.90;99.90;;;;;;5016604;28;20450;-85
2023/07/31 10:15:08;;;;;;;2.53;0.70;;;22.00;99.90;;;;;;5016265;28;20466;-85
2023/07/31 10:17:37;;;;;;;1.10;0.90;;;22.20;99.90;;;;;;5016429;28;20549;-85
2023/07/31 10:20:04;;;;;;;2.30;0.73;;;22.30;99.90;;;;;;5016182;28;20501;-84
2023/07/31 10:22:32;;;;;;;2.43;0.80;;;22.30;99.90;;;;;;5016519;28;20438;-85
2023/07/31 10:25:00;;;;;;;3.13;0.70;;;22.20;99.90;;;;;;5016347;28;20808;-86
2023/07/31 10:27:27;;;;;;;1.00;0.60;;;22.20;99.90;;;;;;5016338;28;20483;-85
2023/07/31 10:29:57;;;;;;;2.73;0.67;;;22.30;99.90;;;;;;5016171;28;20439;-86
2023/07/31 10:32:25;;;;;;;1.60;0.70;;;22.40;99.90;;;;;;5016361;28;20447;-85
2023/07/31 10:34:54;;;;;;;1.13;1.10;;;22.40;99.90;;;;;;5015854;28;20492;-85
2023/07/31 10:37:26;;;;;;;0.93;0.80;;;22.30;99.90;;;;;;5016321;28;20443;-85
2023/07/31 10:39:57;;;;;;;0.73;0.73;;;22.40;99.90;;;;;;5016243;28;20481;-85
2023/07/31 10:42:30;;;;;;;1.80;1.00;;;22.50;99.90;;;;;;5016101;28;20443;-85
2023/07/31 10:44:59;;;;;;;0.67;0.60;;;22.60;99.90;;;;;;5015291;28;20473;-85
2023/07/31 10:47:25;;;;;;;1.10;1.00;;;22.60;99.90;;;;;;5015742;28;20471;-85
2023/07/31 10:49:54;;;;;;;1.67;0.73;;;22.60;99.90;;;;;;5015847;28;20431;-85
2023/07/31 10:52:26;;;;;;;0.80;0.80;;;22.80;99.90;;;;;;5015739;28;20431;-86
2023/07/31 10:55:15;;;;;;;1.07;0.73;;;23.10;99.90;;;;;;5015917;28;20470;-85
2023/07/31 10:57:45;;;;;;;0.60;0.60;;;23.20;99.90;;;;;;5015950;28;20188;-84
2023/07/31 11:00:26;;;;;;;0.80;0.73;;;23.50;99.90;;;;;;5015859;28;20199;-85
2023/07/31 11:03:00;;;;;;;1.27;0.70;;;23.70;99.90;;;;;;5015677;28;20192;-85
2023/07/31 11:05:53;;;;;;;0.80;0.80;;;23.70;99.90;;;;;;5015496;28;20208;-85
2023/07/31 11:08:22;;;;;;;2.73;0.80;;;23.30;99.90;;;;;;5015563;28;20553;-85
2023/07/31 11:10:50;;;;;;;0.63;0.63;;;23.00;99.90;;;;;;5015311;28;20200;-85
2023/07/31 11:13:17;;;;;;;2.20;1.10;;;22.70;99.90;;;;;;5015512;28;20227;-86
2023/07/31 11:15:44;;;;;;;4.00;1.03;;;22.60;99.90;;;;;;5015642;28;20203;-84
2023/07/31 11:18:11;;;;;;;1.20;0.70;;;22.50;99.90;;;;;;5015488;28;20447;-86
2023/07/31 11:20:38;;;;;;;1.27;0.87;;;22.60;99.90;;;;;;5015046;28;20688;-86
2023/07/31 11:23:08;;;;;;;1.70;0.83;;;22.60;99.90;;;;;;5015420;28;20431;-85
2023/07/31 11:25:36;;;;;;;0.80;0.80;;;22.50;99.90;;;;;;5015340;28;20203;-85
2023/07/31 11:28:07;;;;;;;1.37;0.83;;;22.50;99.90;;;;;;5015362;28;20493;-85
2023/07/31 11:30:34;;;;;;;2.50;0.70;;;22.50;99.90;;;;;;5015200;28;20243;-85
2023/07/31 11:33:03;;;;;;;0.87;0.77;;;22.40;99.90;;;;;;5015086;28;20533;-85
2023/07/31 11:35:31;;;;;;;0.83;0.60;;;22.20;99.90;;;;;;5014719;28;20483;-87
2023/07/31 11:37:57;;;;;;;0.80;0.77;;;22.10;99.90;;;;;;5015335;28;20439;-86
2023/07/31 11:40:28;;;;;;;1.23;0.80;;;22.00;99.90;;;;;;5014806;28;20527;-86
2023/07/31 11:42:56;;;;;;;1.00;0.90;;;21.80;99.90;;;;;;5015387;28;20447;-86
2023/07/31 11:45:26;;;;;;;1.53;0.80;;;21.80;99.90;;;;;;5014658;28;20439;-86
2023/07/31 11:47:53;;;;;;;0.80;0.80;;;21.80;99.90;;;;;;5014879;28;20487;-85
2023/07/31 11:50:20;;;;;;;0.67;0.67;;;21.80;99.90;;;;;;5014542;28;20548;-86
2023/07/31 11:52:50;;;;;;;1.77;1.00;;;21.70;99.90;;;;;;5014558;28;20442;-88
2023/07/31 11:55:17;;;;;;;0.90;0.80;;;21.60;99.90;;;;;;5014864;28;20432;-86
2023/07/31 11:57:46;;;;;;;1.33;0.70;;;21.60;99.90;;;;;;5013685;28;20435;-87
2023/07/31 12:00:14;;;;;;;1.00;0.90;;;21.60;99.90;;;;;;5014434;28;20447;-87
2023/07/31 12:02:41;;;;;;;1.73;0.70;;;21.70;99.90;;;;;;5014329;28;20949;-87
2023/07/31 12:05:12;;;;;;;3.03;0.80;;;21.90;99.90;;;;;;5014593;28;20466;-88
2023/07/31 12:07:46;;;;;;;1.70;0.77;;;22.10;99.90;;;;;;5014562;28;20854;-86
2023/07/31 12:10:23;;;;;;;0.63;0.60;;;22.00;99.90;;;;;;5014615;28;20508;-85
2023/07/31 12:13:02;;;;;;;0.70;0.60;;;21.90;99.90;;;;;;5014622;28;20792;-86
2023/07/31 12:15:37;;;;;;;1.00;0.70;;;21.90;99.90;;;;;;5014366;28;20416;-86
2023/07/31 12:18:08;;;;;;;1.53;1.00;;;21.80;99.90;;;;;;5015055;28;20533;-83
2023/07/31 12:20:35;;;;;;;0.70;0.50;;;21.80;99.90;;;;;;5012999;28;20607;-83
2023/07/31 12:23:03;;;;;;;4.13;0.80;;;21.70;99.90;;;;;;5014109;28;20450;-83
2023/07/31 12:25:31;;;;;;;0.83;0.80;;;21.70;99.90;;;;;;5014145;28;20449;-83
2023/07/31 12:28:04;;;;;;;2.43;1.00;;;21.60;99.90;;;;;;5013782;28;21110;-82
2023/07/31 12:30:34;;;;;;;1.93;1.07;;;21.60;99.90;;;;;;5014149;28;20435;-82
2023/07/31 12:33:05;;;;;;;1.27;0.87;;;21.70;99.90;;;;;;5013894;28;20447;-82
2023/07/31 12:35:37;;;;;;;0.80;0.70;;;21.60;99.90;;;;;;5013739;28;20483;-82
2023/07/31 12:38:03;;;;;;;2.70;1.00;;;21.60;99.90;;;;;;5013826;28;20434;-83
2023/07/31 12:40:31;;;;;;;3.70;0.77;;;21.50;99.90;;;;;;5013959;28;20447;-83
2023/07/31 12:43:01;;;;;;;1.80;0.80;;;21.40;99.90;;;;;;5013773;28;20784;-82
2023/07/31 12:45:28;;;;;;;3.33;1.40;;;21.50;99.90;;;;;;5013979;28;20439;-83
2023/07/31 12:47:55;;;;;;;1.03;0.60;;;21.70;99.90;;;;;;5014459;28;20486;-81